Ozark, MO

9:18 PM CST on November 23, 2014 (GMT -0600)
Ozark Heights | Change Station
CLOSE
Current Station
Personal Weather Station
Location: Ozark, MO
Elevation: 1299 ft
Nearby Weather Stations

Elev 1299 ft 37.04 °N, 93.24 °W | Updated 23 hours ago

Rain
Rain
49 °F
Feels Like 49 °F
N
13
Wind Variable Wind from WSW
Gusts 17 mph

Today
High -- | Low -- °F
--% Chance of Precip.
Yesterday
High -- | Low -- °F
Precip. -- in
6:59 AM 4:58 PM
Waxing Crescent, 3% visible
Pressure 29.34 in
Visibility 7.0 miles
Clouds Mostly Cloudy 800 ft
Mostly Cloudy 1600 ft
Overcast 3400 ft
Dew Point 44 °F
Humidity 83%
Rainfall 0.14 in
Snow Depth Not available.
UV 0.0 out of 12
Pollen .40 out of 12
Air Quality Not available.
Flu Activity Not available.
SPECI KSGF 240307Z 32017G28KT 7SM -RA BKN008 BKN016 OVC034 09/08 A2934 RMK AO2 PK WND 32028/0305 PRESRR P0002 T00890078

More Conditions Fewer Conditions

Pressure 29.34 in
Visibility 7.0 miles
Clouds Mostly Cloudy 800 ft
Mostly Cloudy 1600 ft
Overcast 3400 ft
Dew Point 44 °F
Humidity 83%
Rainfall 0.14 in
Snow Depth Not available.
UV 0.0 out of 12
Pollen .40 out of 12
Air Quality Not available.
Flu Activity Not available.
SPECI KSGF 240307Z 32017G28KT 7SM -RA BKN008 BKN016 OVC034 09/08 A2934 RMK AO2 PK WND 32028/0305 PRESRR P0002 T00890078

More Conditions Fewer Conditions

10-Day Weather Forecast

Almanac

Astronomy

Nov. 23, 2014 Rise Set
Actual Time
Civil Twilight
Nautical Twilight
Astronomical Twilight
Moon
Length of Visible Light
Length of Day
Tomorrow will be .
, % of the Moon is Illuminated

Today's Extremes

State Highs State Lows

Community

WunderPhotos

Upload Photos

1,773,257 photos uploaded!

WunderBlogs® & News

Nearby

Air Quality

  Air Quality AQ Index Pollutant
Not available.

Snow Depth

Station Depth Elevation

Earthquake Activity

City Distance Mag. Time & Date
Minimum magnitude displayed is 2.5.

Coastal Water Temperatures

Place Temperature

Nearby Weather Stations